createdAt,value
2023-11-25T00:00:35.647Z,79.68
2023-11-25T00:03:03.750Z,80.37
2023-11-25T00:05:31.677Z,80.75
2023-11-25T00:07:59.652Z,80.88
2023-11-25T00:10:27.642Z,80.70
2023-11-25T00:12:56.837Z,81.40
2023-11-25T00:15:25.131Z,81.55
2023-11-25T00:17:53.560Z,81.40
2023-11-25T00:20:21.339Z,81.03
2023-11-25T00:22:49.379Z,81.37
2023-11-25T00:25:19.739Z,81.68
2023-11-25T00:27:48.639Z,81.99
2023-11-25T00:30:17.944Z,81.98
2023-11-25T00:32:48.735Z,81.51
2023-11-25T00:35:16.509Z,81.28
2023-11-25T00:37:44.252Z,81.60
2023-11-25T00:40:12.394Z,81.17
2023-11-25T00:42:41.226Z,81.05
2023-11-25T00:45:10.877Z,81.12
2023-11-25T00:47:42.008Z,81.73
2023-11-25T00:50:11.354Z,81.09
2023-11-25T00:52:39.766Z,80.98
2023-11-25T00:55:09.797Z,80.19
2023-11-25T00:57:39.417Z,79.94
2023-11-25T01:00:11.327Z,80.45
2023-11-25T01:02:43.432Z,81.05
2023-11-25T01:05:11.848Z,80.94
2023-11-25T01:07:39.816Z,80.46
2023-11-25T01:10:08.730Z,80.36
2023-11-25T01:12:36.628Z,79.96
2023-11-25T01:15:05.471Z,80.98
2023-11-25T01:17:33.454Z,80.75
2023-11-25T01:20:02.614Z,81.09
2023-11-25T01:22:30.452Z,80.54
2023-11-25T01:24:58.462Z,81.41
2023-11-25T01:27:26.169Z,80.40
2023-11-25T01:29:54.697Z,80.07
2023-11-25T01:32:22.454Z,80.38
2023-11-25T01:34:50.198Z,79.57
2023-11-25T01:37:19.577Z,79.49
2023-11-25T01:39:48.154Z,79.87
2023-11-25T01:42:15.971Z,80.87
2023-11-25T01:44:43.928Z,80.31
2023-11-25T01:47:13.163Z,80.23
2023-11-25T01:49:42.088Z,79.90
2023-11-25T01:52:10.666Z,80.22
2023-11-25T01:54:40.125Z,80.79
2023-11-25T01:57:09.656Z,80.52
2023-11-25T01:59:37.432Z,80.95
2023-11-25T02:02:07.153Z,81.59
2023-11-25T02:04:35.184Z,84.86
2023-11-25T02:07:03.722Z,82.05
2023-11-25T02:09:32.324Z,80.17
2023-11-25T02:12:03.701Z,80.34
2023-11-25T02:14:31.757Z,80.95
2023-11-25T02:17:01.247Z,82.12
2023-11-25T02:19:29.952Z,82.38
2023-11-25T02:21:57.970Z,82.96
2023-11-25T02:24:28.919Z,84.04
2023-11-25T02:27:01.127Z,84.73
2023-11-25T02:29:30.100Z,84.37
2023-11-25T02:31:59.408Z,84.74
2023-11-25T02:34:28.082Z,84.93
2023-11-25T02:36:56.104Z,84.50
2023-11-25T02:39:24.204Z,83.15
2023-11-25T02:41:55.335Z,84.01
2023-11-25T02:44:23.630Z,83.64
2023-11-25T02:46:51.908Z,84.18
2023-11-25T02:49:22.521Z,84.44
2023-11-25T02:51:50.872Z,85.45
2023-11-25T02:54:18.847Z,86.31
2023-11-25T02:56:46.746Z,86.34
2023-11-25T02:59:19.033Z,85.69
2023-11-25T03:01:51.163Z,84.72
2023-11-25T03:04:20.589Z,84.95
2023-11-25T03:06:49.368Z,84.08
2023-11-25T03:09:18.488Z,84.29
2023-11-25T03:11:46.298Z,83.85
2023-11-25T03:14:16.504Z,84.59
2023-11-25T03:16:44.400Z,84.82
2023-11-25T03:19:12.400Z,84.42
2023-11-25T03:21:40.333Z,84.82
2023-11-25T03:24:09.395Z,84.67
2023-11-25T03:26:38.045Z,84.08
2023-11-25T03:29:05.866Z,84.03
2023-11-25T03:31:35.284Z,84.09
2023-11-25T03:34:03.064Z,83.67
2023-11-25T03:36:30.802Z,83.12
2023-11-25T03:38:58.453Z,82.90
2023-11-25T03:41:26.153Z,83.60
2023-11-25T03:43:53.810Z,83.49
2023-11-25T03:46:22.533Z,84.14
2023-11-25T03:48:52.042Z,84.43
2023-11-25T03:51:19.732Z,83.74
2023-11-25T03:53:47.516Z,83.94
2023-11-25T03:56:18.636Z,84.54
2023-11-25T03:58:46.208Z,86.00
2023-11-25T04:01:13.980Z,85.31
2023-11-25T04:03:41.834Z,85.74
2023-11-25T04:06:11.049Z,85.98
2023-11-25T04:08:38.958Z,86.25
2023-11-25T04:11:09.248Z,87.57
2023-11-25T04:13:37.504Z,87.61
2023-11-25T04:16:05.807Z,88.27
2023-11-25T04:18:34.581Z,89.59
2023-11-25T04:21:04.714Z,89.64
2023-11-25T04:23:34.007Z,90.49
2023-11-25T04:26:02.761Z,89.82
2023-11-25T04:28:34.443Z,89.11
2023-11-25T04:31:03.747Z,88.53
2023-11-25T04:33:31.450Z,88.18
2023-11-25T04:36:00.925Z,87.91
2023-11-25T04:38:28.721Z,88.20
2023-11-25T04:40:57.837Z,88.18
2023-11-25T04:43:26.665Z,87.57
2023-11-25T04:45:54.368Z,88.43
2023-11-25T04:48:22.226Z,87.41
2023-11-25T04:50:50.051Z,88.59
2023-11-25T04:53:17.986Z,88.42
2023-11-25T04:55:45.684Z,88.41
2023-11-25T04:58:14.858Z,87.05
2023-11-25T05:00:42.766Z,87.03
2023-11-25T05:03:10.785Z,86.70
2023-11-25T05:05:38.886Z,86.47
2023-11-25T05:08:08.247Z,85.95
2023-11-25T05:10:36.241Z,85.24
2023-11-25T05:13:05.680Z,86.26
2023-11-25T05:15:36.452Z,86.46
2023-11-25T05:18:04.178Z,87.01
2023-11-25T05:20:31.823Z,87.38
2023-11-25T05:23:00.525Z,87.12
2023-11-25T05:25:28.312Z,87.56
2023-11-25T05:27:56.146Z,88.03
2023-11-25T05:30:24.267Z,88.08
2023-11-25T05:32:53.448Z,87.64
2023-11-25T05:35:21.271Z,87.91
2023-11-25T05:37:49.485Z,88.05
2023-11-25T05:40:19.003Z,88.68
2023-11-25T05:42:54.082Z,88.35
2023-11-25T05:45:27.259Z,89.59
2023-11-25T05:47:57.418Z,89.45
2023-11-25T05:50:25.415Z,90.90
2023-11-25T05:52:53.323Z,91.45
2023-11-25T05:55:21.986Z,91.71
2023-11-25T05:57:51.779Z,92.40
2023-11-25T06:00:20.672Z,91.40
2023-11-25T06:02:48.397Z,92.17
2023-11-25T06:05:17.712Z,91.79
2023-11-25T06:07:45.525Z,92.09
2023-11-25T06:10:13.582Z,92.07
2023-11-25T06:12:41.574Z,92.61
2023-11-25T06:15:12.505Z,92.96
2023-11-25T06:17:40.277Z,92.51
2023-11-25T06:20:09.557Z,92.84
2023-11-25T06:22:39.418Z,93.43
2023-11-25T06:25:07.954Z,93.85
2023-11-25T06:27:36.766Z,93.49
2023-11-25T06:30:05.115Z,93.79
2023-11-25T06:32:34.319Z,93.10
2023-11-25T06:35:02.392Z,94.05
2023-11-25T06:37:30.208Z,93.84
2023-11-25T06:39:59.488Z,94.99
2023-11-25T06:42:27.161Z,95.07
2023-11-25T06:44:55.195Z,94.99
2023-11-25T06:47:23.374Z,94.63
2023-11-25T06:49:52.601Z,95.30
2023-11-25T06:52:20.584Z,95.41
2023-11-25T06:54:48.307Z,94.76
2023-11-25T06:57:17.628Z,94.92
2023-11-25T06:59:46.519Z,94.42
2023-11-25T07:02:14.614Z,94.13
2023-11-25T07:04:42.586Z,92.76
2023-11-25T07:07:10.477Z,92.74
2023-11-25T07:09:38.431Z,91.64
2023-11-25T07:12:07.021Z,91.31
2023-11-25T07:14:36.059Z,89.93
2023-11-25T07:17:04.524Z,88.81
2023-11-25T07:19:32.605Z,87.84
2023-11-25T07:22:00.480Z,87.85
2023-11-25T07:24:29.648Z,87.20
2023-11-25T07:27:03.163Z,86.17
2023-11-25T07:29:32.533Z,85.72
2023-11-25T07:32:02.257Z,85.34
2023-11-25T07:34:32.259Z,85.59
2023-11-25T07:37:00.689Z,85.58
2023-11-25T07:39:30.566Z,86.05
2023-11-25T07:41:59.345Z,85.27
2023-11-25T07:44:31.332Z,84.84
2023-11-25T07:46:59.210Z,84.54
2023-11-25T07:49:31.154Z,84.15
2023-11-25T07:51:59.007Z,83.80
2023-11-25T07:54:27.135Z,82.11
2023-11-25T07:56:54.756Z,81.77
2023-11-25T07:59:22.740Z,80.44
2023-11-25T08:01:58.946Z,80.00
2023-11-25T08:04:27.017Z,79.83
2023-11-25T08:06:56.119Z,79.34
2023-11-25T08:09:24.589Z,79.05
2023-11-25T08:11:52.417Z,77.76
2023-11-25T08:14:20.164Z,77.78
2023-11-25T08:16:49.241Z,77.42
2023-11-25T08:19:22.239Z,76.59
2023-11-25T08:21:53.651Z,75.97
2023-11-25T08:24:22.771Z,76.21
2023-11-25T08:26:53.697Z,76.04
2023-11-25T08:29:21.509Z,76.62
2023-11-25T08:31:49.739Z,78.15
2023-11-25T08:34:17.779Z,78.67
2023-11-25T08:36:54.101Z,78.65
2023-11-25T08:39:26.799Z,78.99
2023-11-25T08:41:56.156Z,80.41
2023-11-25T08:44:24.035Z,80.62
2023-11-25T08:46:52.798Z,81.20
2023-11-25T08:49:23.140Z,81.13
2023-11-25T08:51:52.388Z,80.63
2023-11-25T08:54:20.923Z,80.86
2023-11-25T08:56:52.344Z,80.83
2023-11-25T08:59:21.587Z,81.71
2023-11-25T09:01:53.495Z,82.38
2023-11-25T09:04:21.701Z,82.70
2023-11-25T09:06:49.588Z,82.10
2023-11-25T09:09:20.201Z,82.64
2023-11-25T09:11:49.076Z,82.79
2023-11-25T09:14:19.948Z,82.83
2023-11-25T09:16:48.161Z,83.35
2023-11-25T09:19:16.164Z,83.16
2023-11-25T09:21:47.415Z,83.06
2023-11-25T09:24:15.115Z,82.50
2023-11-25T09:26:43.027Z,82.35
2023-11-25T09:29:11.781Z,81.82
2023-11-25T09:31:40.818Z,81.16
2023-11-25T09:36:55.963Z,83.51
2023-11-25T09:39:25.814Z,91.34
2023-11-25T09:41:53.459Z,87.24
2023-11-25T09:44:22.421Z,89.30
2023-11-25T09:46:52.462Z,92.46
2023-11-25T09:49:20.516Z,88.71
2023-11-25T09:51:49.436Z,84.91
2023-11-25T09:54:23.796Z,81.44
2023-11-25T09:56:52.236Z,81.25
2023-11-25T09:59:23.768Z,79.88
2023-11-25T10:01:53.261Z,81.05
2023-11-25T10:04:22.374Z,80.16
2023-11-25T10:06:55.140Z,81.49
2023-11-25T10:09:23.680Z,81.38
2023-11-25T10:11:52.031Z,82.63
2023-11-25T10:14:19.895Z,82.72
2023-11-25T10:16:48.062Z,82.85
2023-11-25T10:19:21.921Z,82.77
2023-11-25T10:21:50.470Z,81.29
2023-11-25T10:24:23.992Z,80.23
2023-11-25T10:26:52.391Z,80.00
2023-11-25T10:29:21.085Z,78.24
2023-11-25T10:31:57.041Z,76.69
2023-11-25T10:34:27.723Z,76.31
2023-11-25T10:36:55.590Z,77.05
2023-11-25T10:39:24.953Z,77.53
2023-11-25T10:41:53.272Z,78.14
2023-11-25T10:44:22.298Z,78.28
2023-11-25T10:46:50.573Z,76.55
2023-11-25T10:49:21.505Z,75.37
2023-11-25T10:51:57.864Z,74.85
2023-11-25T10:54:31.723Z,75.21
2023-11-25T10:57:04.600Z,76.07
2023-11-25T10:59:35.255Z,77.12
2023-11-25T11:02:07.522Z,78.19
2023-11-25T11:04:42.742Z,79.24
2023-11-25T11:07:16.781Z,80.17
2023-11-25T11:09:47.809Z,80.24
2023-11-25T11:12:24.215Z,80.55
2023-11-25T11:15:01.558Z,81.04
2023-11-25T11:17:36.004Z,80.91
2023-11-25T11:20:06.897Z,80.98
2023-11-25T11:22:37.062Z,81.10
2023-11-25T11:25:16.712Z,80.55
2023-11-25T11:27:56.797Z,81.40
2023-11-25T11:30:42.627Z,82.35
2023-11-25T11:33:11.840Z,83.53
2023-11-25T11:35:40.575Z,83.55
2023-11-25T11:38:29.806Z,83.73
2023-11-25T11:41:02.874Z,83.74
2023-11-25T11:43:31.088Z,84.10
2023-11-25T11:46:00.076Z,84.64
2023-11-25T11:48:28.863Z,85.69
2023-11-25T11:50:56.682Z,85.07
2023-11-25T11:53:26.233Z,84.08
2023-11-25T11:55:56.841Z,90.08
2023-11-25T11:58:26.683Z,87.36
2023-11-25T12:01:09.514Z,82.58
2023-11-25T12:03:39.180Z,81.57
2023-11-25T12:06:07.991Z,83.24
2023-11-25T12:08:35.906Z,83.48
2023-11-25T12:11:06.609Z,85.33
2023-11-25T12:13:37.423Z,86.73
2023-11-25T12:16:08.222Z,86.36
2023-11-25T12:18:37.481Z,86.22
2023-11-25T12:21:06.907Z,87.79
2023-11-25T12:26:09.283Z,86.98
2023-11-25T12:28:43.275Z,88.48
2023-11-25T12:31:11.253Z,89.16
2023-11-25T12:33:40.748Z,88.47
2023-11-25T12:36:09.701Z,89.80
2023-11-25T12:38:38.229Z,90.51
2023-11-25T12:41:14.016Z,87.95
2023-11-25T12:44:06.805Z,88.39
2023-11-25T12:46:34.649Z,87.46
2023-11-25T12:49:22.007Z,87.25
2023-11-25T12:51:51.281Z,87.89
2023-11-25T12:54:21.235Z,89.52
2023-11-25T12:56:53.343Z,90.64
2023-11-25T12:59:23.464Z,91.47
2023-11-25T13:01:51.877Z,92.48
2023-11-25T13:04:19.995Z,92.27
2023-11-25T13:06:49.790Z,93.61
2023-11-25T13:09:21.068Z,93.39
2023-11-25T13:11:49.099Z,90.24
2023-11-25T13:14:18.214Z,89.24
2023-11-25T13:16:45.031Z,88.48
2023-11-25T13:19:13.714Z,88.54
2023-11-25T13:21:42.992Z,87.81
2023-11-25T13:24:10.833Z,86.81
2023-11-25T13:26:38.745Z,87.43
2023-11-25T13:29:06.801Z,87.38
2023-11-25T13:31:38.516Z,87.71
2023-11-25T13:34:07.276Z,86.58
2023-11-25T13:36:35.030Z,86.12
2023-11-25T13:39:05.509Z,86.66
2023-11-25T13:41:35.614Z,86.75
2023-11-25T13:44:03.302Z,87.33
2023-11-25T13:46:31.188Z,87.64
2023-11-25T13:49:00.556Z,87.84
2023-11-25T13:51:29.028Z,87.42
2023-11-25T13:53:58.222Z,87.03
2023-11-25T13:56:26.184Z,87.59
2023-11-25T13:58:55.312Z,87.55
2023-11-25T14:01:23.350Z,88.38
2023-11-25T14:03:52.120Z,89.23
2023-11-25T14:06:26.061Z,88.34
2023-11-25T14:08:54.931Z,88.07
2023-11-25T14:11:25.905Z,86.37
2023-11-25T14:13:57.648Z,85.54
2023-11-25T14:16:28.468Z,83.83
2023-11-25T14:18:56.361Z,82.96
2023-11-25T14:21:25.612Z,83.02
2023-11-25T14:23:54.536Z,83.12
2023-11-25T14:26:22.261Z,83.12
2023-11-25T14:28:50.149Z,84.00
2023-11-25T14:31:19.383Z,84.81
2023-11-25T14:33:47.224Z,83.69
2023-11-25T14:36:14.958Z,84.10
2023-11-25T14:38:44.058Z,84.03
2023-11-25T14:41:12.021Z,84.07
2023-11-25T14:43:39.965Z,84.84
2023-11-25T14:46:08.044Z,85.01
2023-11-25T14:48:35.842Z,86.40
2023-11-25T14:51:03.909Z,86.19
2023-11-25T14:53:32.189Z,85.98
2023-11-25T14:56:02.257Z,86.03
2023-11-25T14:58:30.158Z,86.18
2023-11-25T15:00:57.859Z,86.20
2023-11-25T15:03:28.485Z,86.69
2023-11-25T15:05:56.535Z,85.67
2023-11-25T15:08:24.421Z,85.94
2023-11-25T15:10:52.824Z,85.76
2023-11-25T15:13:22.051Z,85.77
2023-11-25T15:15:52.229Z,86.28
2023-11-25T15:18:20.445Z,86.76
2023-11-25T15:20:48.346Z,86.35
2023-11-25T15:23:16.026Z,87.08
2023-11-25T15:25:43.980Z,86.36
2023-11-25T15:28:16.662Z,87.23
2023-11-25T15:30:46.273Z,88.09
2023-11-25T15:33:13.919Z,87.66
2023-11-25T15:35:41.612Z,88.80
2023-11-25T15:38:09.341Z,88.65
2023-11-25T15:40:38.644Z,89.01
2023-11-25T15:43:06.499Z,89.62
2023-11-25T15:45:34.553Z,90.34
2023-11-25T15:48:03.878Z,91.02
2023-11-25T15:50:31.574Z,91.92
2023-11-25T15:52:59.261Z,92.53
2023-11-25T15:55:27.517Z,91.97
2023-11-25T15:57:55.359Z,92.15
2023-11-25T16:00:24.076Z,92.10
2023-11-25T16:02:53.221Z,92.66
2023-11-25T16:05:23.426Z,93.18
2023-11-25T16:07:51.242Z,93.69
2023-11-25T16:10:19.082Z,93.61
2023-11-25T16:12:46.746Z,92.56
2023-11-25T16:15:16.004Z,93.80
2023-11-25T16:17:44.015Z,93.53
2023-11-25T16:20:16.695Z,93.79
2023-11-25T16:22:45.925Z,95.23
2023-11-25T16:25:14.153Z,95.78
2023-11-25T16:27:42.100Z,96.35
2023-11-25T16:30:14.738Z,96.34
2023-11-25T16:32:42.835Z,96.36
2023-11-25T16:35:13.466Z,96.82
2023-11-25T16:37:41.596Z,96.47
2023-11-25T16:40:12.383Z,95.90
2023-11-25T16:42:40.200Z,95.89
2023-11-25T16:45:08.575Z,96.02
2023-11-25T16:47:36.584Z,95.70
2023-11-25T16:50:05.164Z,95.79
2023-11-25T16:52:33.188Z,95.78
2023-11-25T16:55:00.836Z,95.78
2023-11-25T16:57:30.243Z,96.23
2023-11-25T16:59:57.882Z,95.59
2023-11-25T17:02:27.555Z,95.35
2023-11-25T17:04:55.449Z,95.84
2023-11-25T17:07:23.479Z,96.26
2023-11-25T17:09:51.154Z,96.24
2023-11-25T17:12:18.847Z,96.88
2023-11-25T17:14:47.890Z,96.48
2023-11-25T17:17:15.879Z,95.44
2023-11-25T17:19:43.638Z,95.28
2023-11-25T17:22:11.333Z,94.95
2023-11-25T17:24:39.395Z,95.17
2023-11-25T17:27:07.640Z,95.04
2023-11-25T17:29:35.459Z,93.68
2023-11-25T17:32:05.644Z,93.11
2023-11-25T17:34:34.404Z,93.05
2023-11-25T17:37:02.456Z,92.16
2023-11-25T17:39:30.829Z,91.93
2023-11-25T17:41:58.532Z,92.71
2023-11-25T17:44:28.602Z,92.18
2023-11-25T17:46:56.297Z,92.01
2023-11-25T17:49:26.427Z,90.56
2023-11-25T17:51:54.418Z,90.65
2023-11-25T17:54:22.172Z,89.08
2023-11-25T17:56:53.602Z,88.41
2023-11-25T17:59:21.426Z,89.43
2023-11-25T18:01:50.456Z,88.87
2023-11-25T18:04:18.759Z,88.92
2023-11-25T18:06:47.767Z,89.92
2023-11-25T18:09:18.353Z,90.55
2023-11-25T18:11:46.025Z,91.21
2023-11-25T18:14:14.459Z,92.13
2023-11-25T18:16:42.375Z,93.61
2023-11-25T18:19:11.760Z,93.09
2023-11-25T18:21:40.156Z,92.57
2023-11-25T18:24:10.781Z,92.22
2023-11-25T18:26:38.726Z,88.86
2023-11-25T18:29:06.877Z,87.20
2023-11-25T18:31:35.268Z,86.56
2023-11-25T18:34:03.867Z,86.45
2023-11-25T18:36:31.905Z,86.18
2023-11-25T18:38:59.686Z,87.03
2023-11-25T18:41:28.953Z,86.13
2023-11-25T18:43:59.206Z,86.48
2023-11-25T18:46:27.255Z,86.65
2023-11-25T18:48:55.016Z,87.10
2023-11-25T18:51:22.688Z,86.60
2023-11-25T18:53:50.326Z,87.35
2023-11-25T18:56:17.918Z,88.40
2023-11-25T18:58:47.074Z,88.29
2023-11-25T19:01:16.275Z,86.55
2023-11-25T19:03:44.147Z,86.54
2023-11-25T19:06:12.228Z,85.91
2023-11-25T19:08:40.747Z,86.04
2023-11-25T19:11:09.360Z,83.50
2023-11-25T19:13:38.168Z,84.42
2023-11-25T19:16:09.755Z,85.47
2023-11-25T19:18:39.569Z,83.89
2023-11-25T19:21:07.785Z,83.45
2023-11-25T19:23:35.425Z,82.57
2023-11-25T19:26:03.650Z,82.54
2023-11-25T19:28:31.426Z,82.33
2023-11-25T19:30:59.140Z,82.28
2023-11-25T19:33:28.200Z,82.15
2023-11-25T19:35:55.968Z,82.73
2023-11-25T19:38:23.633Z,83.14
2023-11-25T19:40:51.407Z,83.50
2023-11-25T19:43:19.237Z,82.99
2023-11-25T19:45:46.920Z,83.55
2023-11-25T19:48:14.814Z,83.04
2023-11-25T19:50:45.597Z,82.84
2023-11-25T19:53:14.196Z,82.45
2023-11-25T19:55:41.964Z,83.30
2023-11-25T19:58:10.992Z,83.04
2023-11-25T20:00:48.964Z,83.69
2023-11-25T20:03:22.989Z,82.66
2023-11-25T20:05:52.605Z,82.86
2023-11-25T20:08:20.607Z,81.68
2023-11-25T20:10:49.228Z,82.09
2023-11-25T20:13:17.912Z,82.38
2023-11-25T20:15:45.782Z,84.30
2023-11-25T20:18:14.621Z,83.91
2023-11-25T20:20:42.830Z,83.90
2023-11-25T20:23:12.270Z,84.75
2023-11-25T20:25:39.996Z,86.16
2023-11-25T20:28:07.822Z,87.53
2023-11-25T20:30:35.581Z,88.33
2023-11-25T20:33:03.465Z,89.39
2023-11-25T20:35:31.277Z,89.93
2023-11-25T20:37:59.062Z,90.57
2023-11-25T20:40:28.503Z,90.37
2023-11-25T20:42:56.329Z,90.79
2023-11-25T20:45:25.007Z,90.95
2023-11-25T20:47:52.679Z,91.97
2023-11-25T20:50:20.492Z,93.05
2023-11-25T20:52:48.817Z,93.07
2023-11-25T20:55:16.633Z,92.74
2023-11-25T20:57:46.747Z,93.04
2023-11-25T21:00:15.599Z,92.86
2023-11-25T21:02:43.738Z,93.03
2023-11-25T21:05:12.355Z,93.42
2023-11-25T21:07:41.322Z,93.05
2023-11-25T21:10:09.882Z,91.83
2023-11-25T21:12:37.548Z,92.00
2023-11-25T21:15:07.761Z,92.25
2023-11-25T21:17:35.856Z,92.57
2023-11-25T21:20:25.625Z,93.08
2023-11-25T21:22:58.589Z,92.97
2023-11-25T21:25:51.994Z,93.08
2023-11-25T21:28:20.211Z,92.57
2023-11-25T21:31:07.347Z,92.57
2023-11-25T21:34:22.447Z,91.90
2023-11-25T21:37:26.114Z,91.30
2023-11-25T21:40:13.898Z,91.54
2023-11-25T21:42:54.160Z,92.37
2023-11-25T21:45:21.018Z,92.78
2023-11-25T21:47:52.299Z,92.51
2023-11-25T21:50:23.783Z,92.39
2023-11-25T21:53:15.607Z,93.45
2023-11-25T21:55:48.580Z,92.73
2023-11-25T21:58:38.846Z,92.35
2023-11-25T22:01:26.163Z,92.28
2023-11-25T22:04:06.036Z,93.31
2023-11-25T22:06:47.016Z,93.54
2023-11-25T22:09:48.620Z,93.83
2023-11-25T22:12:27.298Z,93.48
2023-11-25T22:14:59.477Z,92.94
2023-11-25T22:17:29.589Z,93.73
2023-11-25T22:20:23.768Z,94.39
2023-11-25T22:22:52.261Z,93.41
2023-11-25T22:25:27.856Z,93.50
2023-11-25T22:27:56.059Z,93.47
2023-11-25T22:30:25.476Z,93.37
2023-11-25T22:32:53.320Z,93.73
2023-11-25T22:35:22.565Z,93.13
2023-11-25T22:37:50.803Z,93.63
2023-11-25T22:40:18.676Z,94.00
2023-11-25T22:42:46.734Z,92.27
2023-11-25T22:45:14.871Z,91.47
2023-11-25T22:47:43.114Z,91.37
2023-11-25T22:50:11.817Z,91.87
2023-11-25T22:52:41.103Z,91.13
2023-11-25T22:55:09.178Z,89.56
2023-11-25T22:57:37.530Z,89.96
2023-11-25T23:00:16.427Z,88.48
2023-11-25T23:02:45.200Z,88.02
2023-11-25T23:05:13.706Z,87.44
2023-11-25T23:07:42.996Z,87.79
2023-11-25T23:10:10.956Z,87.90
2023-11-25T23:12:38.729Z,88.43
2023-11-25T23:15:07.346Z,89.54
2023-11-25T23:17:36.076Z,91.01
2023-11-25T23:20:08.326Z,90.03
2023-11-25T23:22:36.032Z,90.37
2023-11-25T23:25:05.776Z,90.53
2023-11-25T23:27:33.562Z,90.54
2023-11-25T23:30:01.465Z,90.22
2023-11-25T23:32:29.338Z,91.03
2023-11-25T23:34:58.355Z,91.75
2023-11-25T23:37:26.481Z,93.17
2023-11-25T23:39:54.306Z,93.39
2023-11-25T23:42:24.542Z,94.42
2023-11-25T23:44:52.311Z,94.67
2023-11-25T23:47:20.606Z,95.61
2023-11-25T23:49:48.995Z,94.49
2023-11-25T23:52:17.577Z,95.13
2023-11-25T23:54:45.392Z,95.78
2023-11-25T23:57:13.432Z,97.00
2023-11-25T23:59:42.803Z,96.75
